Погода Лискинона 2 недели

Тверская область, Россия

25 мая-07 июня
  • 25мая
    Сегодня
    +11°
    +24°
    Ясно и безоблачно
    ВремяПогодаТемператураВлажностьДавлениеВетер, м/сВероятность осадков
    00:00Ясно и безоблачно+11°C54 %760 мм0.7 м/с2 %
    03:00Ясно и безоблачно+8°C59 %760 мм0.8 м/с2 %
    06:00Ясно и безоблачно+12°C60 %760 мм1.3 м/с2 %
    09:00Облачно с прояснениями+19°C49 %759 мм1.8 м/с2 %
    12:00Ясно и безоблачно+23°C31 %758 мм2.6 м/с2 %
    15:00Ясно и безоблачно+23°C29 %757 мм2.6 м/с2 %
    18:00Ясно и безоблачно+24°C35 %756 мм2.1 м/с2 %
    21:00Ясно и безоблачно+17°C48 %755 мм0.7 м/с2 %
  • 26мая
    Воскресенье
    +6°
    +21°
    Ясно и безоблачно
    ВремяПогодаТемператураВлажностьДавлениеВетер, м/сВероятность осадков
    00:00Ясно и безоблачно+12°C54 %755 мм0.6 м/с2 %
    03:00Практически безоблачно+12°C69 %755 мм0.4 м/с2 %
    06:00Небольшая облачность+14°C87 %756 мм1.0 м/с2 %
    09:00Облачно с прояснениями+18°C64 %757 мм1.1 м/с10 %
    12:00Небольшая облачность+20°C49 %757 мм1.9 м/с14 %
    15:00Ясно и безоблачно+20°C31 %757 мм2.3 м/с10 %
    18:00Ясно и безоблачно+20°C34 %758 мм1.9 м/с3 %
    21:00Ясно и безоблачно+13°C45 %758 мм0.6 м/с2 %
  • 27мая
    Понедельник
    +7°
    +23°
    Ясно и безоблачно
    ВремяПогодаТемператураВлажностьДавлениеВетер, м/сВероятность осадков
    00:00Ясно и безоблачно+9°C56 %759 мм0.5 м/с2 %
    03:00Ясно и безоблачно+6°C66 %759 мм0.4 м/с2 %
    06:00Ясно и безоблачно+9°C65 %760 мм0.8 м/с2 %
    09:00Ясно и безоблачно+17°C45 %760 мм1.0 м/с2 %
    12:00Ясно и безоблачно+20°C36 %760 мм1.4 м/с2 %
    15:00Ясно и безоблачно+21°C33 %759 мм1.4 м/с2 %
    18:00Ясно и безоблачно+22°C33 %757 мм1.0 м/с2 %
    21:00Ясно и безоблачно+14°C55 %757 мм0.2 м/с2 %
  • 28мая
    Вторник
    +10°
    +26°
    Ясно и безоблачно
    ВремяПогодаТемператураВлажностьДавлениеВетер, м/сВероятность осадков
    00:00Ясно и безоблачно+10°C66 %756 мм0.4 м/с2 %
    03:00Ясно и безоблачно+8°C72 %756 мм0.4 м/с2 %
    06:00Ясно и безоблачно+11°C72 %756 мм0.8 м/с2 %
    09:00Ясно и безоблачно+21°C52 %756 мм1.0 м/с2 %
    12:00Ясно и безоблачно+24°C38 %755 мм1.6 м/с2 %
    15:00Ясно и безоблачно+25°C32 %754 мм1.6 м/с6 %
    18:00Ясно и безоблачно+25°C34 %753 мм1.0 м/с9 %
    21:00Ясно и безоблачно+18°C48 %752 мм0.5 м/с2 %
  • 29мая
    Среда
    +10°
    +26°
    Практически безоблачно
    ВремяПогодаТемператураВлажностьДавлениеВетер, м/сВероятность осадков
    00:00Ясно и безоблачно+13°C72 %752 мм0.4 м/с2 %
    03:00Ясно и безоблачно+11°C80 %752 мм0.4 м/с2 %
    06:00Практически безоблачно+15°C73 %751 мм0.8 м/с4 %
    09:00Ясно и безоблачно+23°C54 %751 мм0.9 м/с7 %
    12:00Ясно и безоблачно+26°C43 %751 мм1.5 м/с13 %
    15:00Практически безоблачно+26°C42 %750 мм1.6 м/с18 %
    18:00Небольшая облачность, возможен дождь с грозой+25°C57 %750 мм0.8 м/с26 %
    21:00Практически безоблачно+19°C77 %749 мм0.0 м/с8 %
Мы используем cookies
Соглашаюсь